sensor_id;sensor_type;location;lat;lon;timestamp;P1;durP1;ratioP1;P2;durP2;ratioP2
45792;SDS011;31495;42.740;22.908;2023-05-10T00:00:03;3.08;;;1.02;;
45792;SDS011;31495;42.740;22.908;2023-05-10T00:01:03;1.63;;;0.73;;
45792;SDS011;31495;42.740;22.908;2023-05-10T00:02:03;1.80;;;0.98;;
45792;SDS011;31495;42.740;22.908;2023-05-10T00:03:02;1.50;;;0.82;;
45792;SDS011;31495;42.740;22.908;2023-05-10T00:05:03;3.92;;;1.08;;
45792;SDS011;31495;42.740;22.908;2023-05-10T00:06:03;2.03;;;1.10;;
45792;SDS011;31495;42.740;22.908;2023-05-10T00:07:03;3.63;;;0.70;;
45792;SDS011;31495;42.740;22.908;2023-05-10T00:08:03;2.33;;;1.20;;
45792;SDS011;31495;42.740;22.908;2023-05-10T00:09:02;3.15;;;0.80;;
45792;SDS011;31495;42.740;22.908;2023-05-10T00:10:02;1.70;;;1.00;;
45792;SDS011;31495;42.740;22.908;2023-05-10T00:11:02;1.48;;;0.85;;
45792;SDS011;31495;42.740;22.908;2023-05-10T00:12:01;2.13;;;0.93;;
45792;SDS011;31495;42.740;22.908;2023-05-10T00:13:01;1.83;;;0.70;;
45792;SDS011;31495;42.740;22.908;2023-05-10T00:14:00;1.83;;;1.00;;
45792;SDS011;31495;42.740;22.908;2023-05-10T00:15:00;1.55;;;0.70;;
45792;SDS011;31495;42.740;22.908;2023-05-10T00:15:59;2.10;;;1.08;;
45792;SDS011;31495;42.740;22.908;2023-05-10T00:16:58;2.38;;;1.23;;
45792;SDS011;31495;42.740;22.908;2023-05-10T00:17:58;2.00;;;0.90;;
45792;SDS011;31495;42.740;22.908;2023-05-10T00:18:57;1.67;;;0.98;;
45792;SDS011;31495;42.740;22.908;2023-05-10T00:19:57;3.03;;;0.80;;
45792;SDS011;31495;42.740;22.908;2023-05-10T00:20:56;1.75;;;1.00;;
45792;SDS011;31495;42.740;22.908;2023-05-10T00:21:55;1.10;;;0.75;;
45792;SDS011;31495;42.740;22.908;2023-05-10T00:22:55;1.73;;;0.80;;
45792;SDS011;31495;42.740;22.908;2023-05-10T00:23:54;2.15;;;1.17;;
45792;SDS011;31495;42.740;22.908;2023-05-10T00:24:54;2.15;;;1.10;;
45792;SDS011;31495;42.740;22.908;2023-05-10T00:25:54;1.92;;;1.00;;
45792;SDS011;31495;42.740;22.908;2023-05-10T00:26:53;2.28;;;1.00;;
45792;SDS011;31495;42.740;22.908;2023-05-10T00:27:52;1.80;;;0.90;;
45792;SDS011;31495;42.740;22.908;2023-05-10T00:28:54;2.00;;;1.10;;
45792;SDS011;31495;42.740;22.908;2023-05-10T00:29:53;3.13;;;1.02;;
45792;SDS011;31495;42.740;22.908;2023-05-10T00:30:53;2.58;;;1.10;;
45792;SDS011;31495;42.740;22.908;2023-05-10T00:31:52;2.67;;;1.33;;
45792;SDS011;31495;42.740;22.908;2023-05-10T00:32:51;3.25;;;1.08;;
45792;SDS011;31495;42.740;22.908;2023-05-10T00:33:51;1.90;;;1.08;;
45792;SDS011;31495;42.740;22.908;2023-05-10T00:34:50;4.55;;;1.20;;
45792;SDS011;31495;42.740;22.908;2023-05-10T00:35:50;1.88;;;1.05;;
45792;SDS011;31495;42.740;22.908;2023-05-10T00:36:49;1.30;;;0.80;;
45792;SDS011;31495;42.740;22.908;2023-05-10T00:37:49;1.90;;;1.08;;
45792;SDS011;31495;42.740;22.908;2023-05-10T00:38:48;2.35;;;0.98;;
45792;SDS011;31495;42.740;22.908;2023-05-10T00:39:48;3.20;;;1.10;;
45792;SDS011;31495;42.740;22.908;2023-05-10T00:40:47;2.28;;;1.10;;
45792;SDS011;31495;42.740;22.908;2023-05-10T00:41:46;1.70;;;0.80;;
45792;SDS011;31495;42.740;22.908;2023-05-10T00:42:46;1.55;;;1.00;;
45792;SDS011;31495;42.740;22.908;2023-05-10T00:43:45;3.88;;;1.20;;
45792;SDS011;31495;42.740;22.908;2023-05-10T00:44:45;2.67;;;1.00;;
45792;SDS011;31495;42.740;22.908;2023-05-10T00:45:45;1.92;;;0.88;;
45792;SDS011;31495;42.740;22.908;2023-05-10T00:46:46;2.10;;;1.17;;
45792;SDS011;31495;42.740;22.908;2023-05-10T00:47:46;2.05;;;1.17;;
45792;SDS011;31495;42.740;22.908;2023-05-10T00:48:46;2.22;;;1.15;;
45792;SDS011;31495;42.740;22.908;2023-05-10T00:49:46;1.58;;;0.88;;
45792;SDS011;31495;42.740;22.908;2023-05-10T00:50:45;2.35;;;1.17;;
45792;SDS011;31495;42.740;22.908;2023-05-10T00:51:45;1.83;;;1.10;;
45792;SDS011;31495;42.740;22.908;2023-05-10T00:52:44;1.55;;;0.90;;
45792;SDS011;31495;42.740;22.908;2023-05-10T00:53:45;1.90;;;1.08;;
45792;SDS011;31495;42.740;22.908;2023-05-10T00:54:45;2.40;;;1.15;;
45792;SDS011;31495;42.740;22.908;2023-05-10T00:55:45;2.30;;;1.15;;
45792;SDS011;31495;42.740;22.908;2023-05-10T00:56:45;2.13;;;1.38;;
45792;SDS011;31495;42.740;22.908;2023-05-10T00:57:47;2.20;;;0.90;;
45792;SDS011;31495;42.740;22.908;2023-05-10T00:58:47;2.25;;;1.00;;
45792;SDS011;31495;42.740;22.908;2023-05-10T00:59:46;2.95;;;1.35;;
45792;SDS011;31495;42.740;22.908;2023-05-10T01:00:47;2.65;;;1.50;;
45792;SDS011;31495;42.740;22.908;2023-05-10T01:01:47;2.58;;;1.27;;
45792;SDS011;31495;42.740;22.908;2023-05-10T01:02:47;1.88;;;1.20;;
45792;SDS011;31495;42.740;22.908;2023-05-10T01:03:47;2.00;;;1.10;;
45792;SDS011;31495;42.740;22.908;2023-05-10T01:04:47;1.85;;;1.20;;
45792;SDS011;31495;42.740;22.908;2023-05-10T01:05:48;1.67;;;1.33;;
45792;SDS011;31495;42.740;22.908;2023-05-10T01:06:49;2.47;;;1.52;;
45792;SDS011;31495;42.740;22.908;2023-05-10T01:07:48;3.08;;;1.52;;
45792;SDS011;31495;42.740;22.908;2023-05-10T01:08:47;2.35;;;1.30;;
45792;SDS011;31495;42.740;22.908;2023-05-10T01:09:47;3.00;;;1.65;;
45792;SDS011;31495;42.740;22.908;2023-05-10T01:10:46;2.72;;;1.40;;
45792;SDS011;31495;42.740;22.908;2023-05-10T01:11:48;2.65;;;1.70;;
45792;SDS011;31495;42.740;22.908;2023-05-10T01:12:48;2.60;;;1.52;;
45792;SDS011;31495;42.740;22.908;2023-05-10T01:13:50;2.28;;;1.10;;
45792;SDS011;31495;42.740;22.908;2023-05-10T01:14:55;3.65;;;2.03;;
45792;SDS011;31495;42.740;22.908;2023-05-10T01:15:54;2.97;;;1.60;;
45792;SDS011;31495;42.740;22.908;2023-05-10T01:16:55;3.22;;;1.90;;
45792;SDS011;31495;42.740;22.908;2023-05-10T01:17:55;2.75;;;1.52;;
45792;SDS011;31495;42.740;22.908;2023-05-10T01:18:55;3.10;;;1.83;;
45792;SDS011;31495;42.740;22.908;2023-05-10T01:19:54;2.45;;;1.58;;
45792;SDS011;31495;42.740;22.908;2023-05-10T01:23:36;2.70;;;1.60;;
45792;SDS011;31495;42.740;22.908;2023-05-10T01:31:31;3.28;;;1.95;;
45792;SDS011;31495;42.740;22.908;2023-05-10T01:34:09;2.65;;;1.70;;
45792;SDS011;31495;42.740;22.908;2023-05-10T01:35:29;2.50;;;1.70;;
45792;SDS011;31495;42.740;22.908;2023-05-10T01:36:35;2.72;;;1.73;;
45792;SDS011;31495;42.740;22.908;2023-05-10T01:39:32;3.05;;;1.70;;
45792;SDS011;31495;42.740;22.908;2023-05-10T01:41:30;2.80;;;1.85;;
45792;SDS011;31495;42.740;22.908;2023-05-10T01:42:08;3.15;;;1.98;;
45792;SDS011;31495;42.740;22.908;2023-05-10T01:43:11;3.47;;;2.08;;
45792;SDS011;31495;42.740;22.908;2023-05-10T01:44:29;3.47;;;2.03;;
45792;SDS011;31495;42.740;22.908;2023-05-10T01:45:41;3.88;;;2.30;;
45792;SDS011;31495;42.740;22.908;2023-05-10T01:47:14;2.90;;;2.00;;
45792;SDS011;31495;42.740;22.908;2023-05-10T01:48:16;3.67;;;2.33;;
45792;SDS011;31495;42.740;22.908;2023-05-10T01:49:24;4.00;;;2.58;;
45792;SDS011;31495;42.740;22.908;2023-05-10T01:50:27;4.15;;;3.15;;
45792;SDS011;31495;42.740;22.908;2023-05-10T01:51:35;4.30;;;2.28;;
45792;SDS011;31495;42.740;22.908;2023-05-10T01:52:41;3.88;;;2.55;;
45792;SDS011;31495;42.740;22.908;2023-05-10T01:53:45;3.47;;;2.33;;
45792;SDS011;31495;42.740;22.908;2023-05-10T01:54:53;4.30;;;2.95;;
45792;SDS011;31495;42.740;22.908;2023-05-10T01:55:55;3.67;;;2.38;;
45792;SDS011;31495;42.740;22.908;2023-05-10T01:56:59;4.07;;;2.47;;
45792;SDS011;31495;42.740;22.908;2023-05-10T01:58:05;3.90;;;2.72;;
45792;SDS011;31495;42.740;22.908;2023-05-10T01:59:09;6.13;;;3.47;;
45792;SDS011;31495;42.740;22.908;2023-05-10T02:00:13;6.72;;;3.20;;
45792;SDS011;31495;42.740;22.908;2023-05-10T02:01:14;3.58;;;2.53;;
45792;SDS011;31495;42.740;22.908;2023-05-10T02:02:15;4.63;;;3.03;;
45792;SDS011;31495;42.740;22.908;2023-05-10T02:03:18;3.70;;;2.42;;
45792;SDS011;31495;42.740;22.908;2023-05-10T02:04:21;4.65;;;3.17;;
45792;SDS011;31495;42.740;22.908;2023-05-10T02:05:22;4.68;;;2.97;;
45792;SDS011;31495;42.740;22.908;2023-05-10T02:06:24;6.47;;;2.80;;
45792;SDS011;31495;42.740;22.908;2023-05-10T02:07:24;4.45;;;2.90;;
45792;SDS011;31495;42.740;22.908;2023-05-10T02:08:27;6.18;;;2.88;;
45792;SDS011;31495;42.740;22.908;2023-05-10T02:09:28;4.45;;;2.75;;
45792;SDS011;31495;42.740;22.908;2023-05-10T02:10:28;5.03;;;3.45;;
45792;SDS011;31495;42.740;22.908;2023-05-10T02:11:29;5.15;;;3.28;;
45792;SDS011;31495;42.740;22.908;2023-05-10T02:12:31;4.53;;;3.35;;
45792;SDS011;31495;42.740;22.908;2023-05-10T02:13:34;5.45;;;3.63;;
45792;SDS011;31495;42.740;22.908;2023-05-10T02:14:38;5.47;;;3.50;;
45792;SDS011;31495;42.740;22.908;2023-05-10T02:15:40;5.70;;;3.72;;
45792;SDS011;31495;42.740;22.908;2023-05-10T02:16:42;4.53;;;3.47;;
45792;SDS011;31495;42.740;22.908;2023-05-10T02:17:42;4.68;;;3.28;;
45792;SDS011;31495;42.740;22.908;2023-05-10T02:18:43;5.80;;;3.75;;
45792;SDS011;31495;42.740;22.908;2023-05-10T02:19:45;6.03;;;3.90;;
45792;SDS011;31495;42.740;22.908;2023-05-10T02:20:46;5.60;;;3.83;;
45792;SDS011;31495;42.740;22.908;2023-05-10T02:21:46;7.65;;;3.92;;
45792;SDS011;31495;42.740;22.908;2023-05-10T02:22:47;5.45;;;3.97;;
45792;SDS011;31495;42.740;22.908;2023-05-10T02:23:50;6.28;;;4.35;;
45792;SDS011;31495;42.740;22.908;2023-05-10T02:24:51;6.85;;;3.90;;
45792;SDS011;31495;42.740;22.908;2023-05-10T02:25:51;7.47;;;3.75;;
45792;SDS011;31495;42.740;22.908;2023-05-10T02:26:54;4.65;;;3.80;;
45792;SDS011;31495;42.740;22.908;2023-05-10T02:27:57;5.32;;;4.03;;
45792;SDS011;31495;42.740;22.908;2023-05-10T02:28:59;6.00;;;4.10;;
45792;SDS011;31495;42.740;22.908;2023-05-10T02:30:02;7.00;;;3.88;;
45792;SDS011;31495;42.740;22.908;2023-05-10T02:31:02;5.70;;;4.28;;
45792;SDS011;31495;42.740;22.908;2023-05-10T02:32:02;6.68;;;4.18;;
45792;SDS011;31495;42.740;22.908;2023-05-10T02:33:03;5.68;;;3.92;;
45792;SDS011;31495;42.740;22.908;2023-05-10T02:34:04;6.97;;;4.18;;
45792;SDS011;31495;42.740;22.908;2023-05-10T02:35:07;6.45;;;4.55;;
45792;SDS011;31495;42.740;22.908;2023-05-10T02:36:09;5.70;;;3.92;;
45792;SDS011;31495;42.740;22.908;2023-05-10T02:37:09;5.00;;;3.53;;
45792;SDS011;31495;42.740;22.908;2023-05-10T02:38:10;5.28;;;4.30;;
45792;SDS011;31495;42.740;22.908;2023-05-10T02:39:11;6.38;;;5.10;;
45792;SDS011;31495;42.740;22.908;2023-05-10T02:40:12;6.28;;;4.75;;
45792;SDS011;31495;42.740;22.908;2023-05-10T02:41:13;5.32;;;4.00;;
45792;SDS011;31495;42.740;22.908;2023-05-10T02:42:16;7.15;;;4.05;;
45792;SDS011;31495;42.740;22.908;2023-05-10T02:43:17;6.70;;;4.35;;
45792;SDS011;31495;42.740;22.908;2023-05-10T02:44:18;5.88;;;3.63;;
45792;SDS011;31495;42.740;22.908;2023-05-10T02:45:19;5.63;;;3.67;;
45792;SDS011;31495;42.740;22.908;2023-05-10T02:46:22;5.50;;;3.78;;
45792;SDS011;31495;42.740;22.908;2023-05-10T02:47:22;5.72;;;4.22;;
45792;SDS011;31495;42.740;22.908;2023-05-10T02:48:22;6.65;;;4.80;;
45792;SDS011;31495;42.740;22.908;2023-05-10T02:49:21;5.68;;;4.53;;
45792;SDS011;31495;42.740;22.908;2023-05-10T02:50:20;5.47;;;3.78;;
45792;SDS011;31495;42.740;22.908;2023-05-10T02:51:23;6.40;;;3.55;;
45792;SDS011;31495;42.740;22.908;2023-05-10T02:52:27;6.05;;;4.00;;
45792;SDS011;31495;42.740;22.908;2023-05-10T02:53:30;6.20;;;3.90;;
45792;SDS011;31495;42.740;22.908;2023-05-10T02:54:33;7.43;;;4.03;;
45792;SDS011;31495;42.740;22.908;2023-05-10T02:55:39;6.85;;;4.20;;
45792;SDS011;31495;42.740;22.908;2023-05-10T02:56:42;7.45;;;4.50;;
45792;SDS011;31495;42.740;22.908;2023-05-10T02:57:54;5.65;;;3.25;;
45792;SDS011;31495;42.740;22.908;2023-05-10T02:58:57;4.57;;;3.30;;
45792;SDS011;31495;42.740;22.908;2023-05-10T02:59:56;5.43;;;3.80;;
45792;SDS011;31495;42.740;22.908;2023-05-10T03:00:56;7.80;;;4.25;;
45792;SDS011;31495;42.740;22.908;2023-05-10T03:01:56;4.57;;;3.13;;
45792;SDS011;31495;42.740;22.908;2023-05-10T03:02:55;5.07;;;3.53;;
45792;SDS011;31495;42.740;22.908;2023-05-10T03:03:55;5.72;;;4.00;;
45792;SDS011;31495;42.740;22.908;2023-05-10T03:04:55;5.90;;;3.72;;
45792;SDS011;31495;42.740;22.908;2023-05-10T03:05:54;5.20;;;3.65;;
45792;SDS011;31495;42.740;22.908;2023-05-10T03:06:55;6.45;;;3.67;;
45792;SDS011;31495;42.740;22.908;2023-05-10T03:07:54;3.45;;;2.47;;
45792;SDS011;31495;42.740;22.908;2023-05-10T03:08:54;4.28;;;3.13;;
45792;SDS011;31495;42.740;22.908;2023-05-10T03:09:54;4.43;;;3.47;;
45792;SDS011;31495;42.740;22.908;2023-05-10T03:12:17;4.13;;;3.00;;
45792;SDS011;31495;42.740;22.908;2023-05-10T03:13:29;4.60;;;2.70;;
45792;SDS011;31495;42.740;22.908;2023-05-10T03:14:53;4.68;;;3.22;;
45792;SDS011;31495;42.740;22.908;2023-05-10T03:20:59;6.60;;;3.45;;
45792;SDS011;31495;42.740;22.908;2023-05-10T03:22:04;5.68;;;2.88;;
45792;SDS011;31495;42.740;22.908;2023-05-10T03:23:13;4.18;;;2.83;;
45792;SDS011;31495;42.740;22.908;2023-05-10T03:24:14;4.18;;;2.65;;
45792;SDS011;31495;42.740;22.908;2023-05-10T03:25:16;3.63;;;2.45;;
45792;SDS011;31495;42.740;22.908;2023-05-10T03:26:21;5.13;;;3.20;;
45792;SDS011;31495;42.740;22.908;2023-05-10T03:27:25;5.38;;;3.47;;
45792;SDS011;31495;42.740;22.908;2023-05-10T03:28:26;5.22;;;3.60;;
45792;SDS011;31495;42.740;22.908;2023-05-10T03:29:27;6.38;;;2.95;;
45792;SDS011;31495;42.740;22.908;2023-05-10T03:30:27;4.55;;;2.97;;
45792;SDS011;31495;42.740;22.908;2023-05-10T03:31:27;5.57;;;2.83;;
45792;SDS011;31495;42.740;22.908;2023-05-10T03:32:28;5.13;;;3.13;;
45792;SDS011;31495;42.740;22.908;2023-05-10T03:33:30;3.92;;;2.70;;
45792;SDS011;31495;42.740;22.908;2023-05-10T03:34:31;4.53;;;2.58;;
45792;SDS011;31495;42.740;22.908;2023-05-10T03:35:30;3.30;;;2.42;;
45792;SDS011;31495;42.740;22.908;2023-05-10T03:36:30;5.15;;;2.70;;
45792;SDS011;31495;42.740;22.908;2023-05-10T03:37:30;4.18;;;2.60;;
45792;SDS011;31495;42.740;22.908;2023-05-10T03:38:29;4.72;;;3.05;;
45792;SDS011;31495;42.740;22.908;2023-05-10T03:39:28;4.35;;;2.88;;
45792;SDS011;31495;42.740;22.908;2023-05-10T03:40:28;4.72;;;2.38;;
45792;SDS011;31495;42.740;22.908;2023-05-10T03:41:31;4.20;;;2.60;;
45792;SDS011;31495;42.740;22.908;2023-05-10T03:42:30;3.55;;;2.45;;
45792;SDS011;31495;42.740;22.908;2023-05-10T03:43:30;5.60;;;3.08;;
45792;SDS011;31495;42.740;22.908;2023-05-10T03:44:29;4.70;;;2.95;;
45792;SDS011;31495;42.740;22.908;2023-05-10T03:45:29;5.10;;;3.30;;
45792;SDS011;31495;42.740;22.908;2023-05-10T03:46:29;11.50;;;3.10;;
45792;SDS011;31495;42.740;22.908;2023-05-10T03:47:29;4.80;;;2.92;;
45792;SDS011;31495;42.740;22.908;2023-05-10T03:48:28;5.03;;;3.40;;
45792;SDS011;31495;42.740;22.908;2023-05-10T03:49:28;4.70;;;3.10;;
45792;SDS011;31495;42.740;22.908;2023-05-10T03:50:28;4.63;;;3.40;;
45792;SDS011;31495;42.740;22.908;2023-05-10T03:51:27;7.95;;;2.95;;
45792;SDS011;31495;42.740;22.908;2023-05-10T03:52:27;5.63;;;3.20;;
45792;SDS011;31495;42.740;22.908;2023-05-10T03:53:26;5.15;;;3.10;;
45792;SDS011;31495;42.740;22.908;2023-05-10T03:54:25;4.05;;;2.92;;
45792;SDS011;31495;42.740;22.908;2023-05-10T03:55:25;5.18;;;3.30;;
45792;SDS011;31495;42.740;22.908;2023-05-10T03:56:24;6.18;;;2.97;;
45792;SDS011;31495;42.740;22.908;2023-05-10T03:57:24;6.53;;;3.63;;
45792;SDS011;31495;42.740;22.908;2023-05-10T03:58:24;4.88;;;3.22;;
45792;SDS011;31495;42.740;22.908;2023-05-10T03:59:23;5.25;;;3.60;;
45792;SDS011;31495;42.740;22.908;2023-05-10T04:00:22;5.57;;;3.80;;
45792;SDS011;31495;42.740;22.908;2023-05-10T04:01:22;7.18;;;4.32;;
45792;SDS011;31495;42.740;22.908;2023-05-10T04:02:21;9.38;;;3.85;;
45792;SDS011;31495;42.740;22.908;2023-05-10T04:03:21;5.75;;;3.15;;
45792;SDS011;31495;42.740;22.908;2023-05-10T04:04:20;5.03;;;3.17;;
45792;SDS011;31495;42.740;22.908;2023-05-10T04:05:20;9.25;;;3.60;;
45792;SDS011;31495;42.740;22.908;2023-05-10T04:06:20;8.95;;;3.30;;
45792;SDS011;31495;42.740;22.908;2023-05-10T04:07:19;5.38;;;3.58;;
45792;SDS011;31495;42.740;22.908;2023-05-10T04:08:18;4.85;;;2.97;;
45792;SDS011;31495;42.740;22.908;2023-05-10T04:09:18;5.22;;;3.33;;
45792;SDS011;31495;42.740;22.908;2023-05-10T04:10:17;6.43;;;3.90;;
45792;SDS011;31495;42.740;22.908;2023-05-10T04:11:16;5.80;;;3.58;;
45792;SDS011;31495;42.740;22.908;2023-05-10T04:12:16;5.95;;;3.58;;
45792;SDS011;31495;42.740;22.908;2023-05-10T04:13:15;7.20;;;3.35;;
45792;SDS011;31495;42.740;22.908;2023-05-10T04:14:15;6.57;;;3.55;;
45792;SDS011;31495;42.740;22.908;2023-05-10T04:15:15;6.85;;;3.63;;
45792;SDS011;31495;42.740;22.908;2023-05-10T04:16:14;6.10;;;3.92;;
45792;SDS011;31495;42.740;22.908;2023-05-10T04:17:14;5.20;;;3.45;;
45792;SDS011;31495;42.740;22.908;2023-05-10T04:18:14;5.75;;;3.70;;
45792;SDS011;31495;42.740;22.908;2023-05-10T04:19:13;4.50;;;3.22;;
45792;SDS011;31495;42.740;22.908;2023-05-10T04:20:13;9.13;;;4.00;;
45792;SDS011;31495;42.740;22.908;2023-05-10T04:21:12;6.00;;;3.92;;
45792;SDS011;31495;42.740;22.908;2023-05-10T04:22:12;10.93;;;3.75;;
45792;SDS011;31495;42.740;22.908;2023-05-10T04:23:12;7.93;;;4.28;;
45792;SDS011;31495;42.740;22.908;2023-05-10T04:24:13;6.55;;;4.25;;
45792;SDS011;31495;42.740;22.908;2023-05-10T04:25:12;5.43;;;3.67;;
45792;SDS011;31495;42.740;22.908;2023-05-10T04:26:12;6.43;;;3.95;;
45792;SDS011;31495;42.740;22.908;2023-05-10T04:27:12;5.90;;;3.90;;
45792;SDS011;31495;42.740;22.908;2023-05-10T04:28:11;7.97;;;3.83;;
45792;SDS011;31495;42.740;22.908;2023-05-10T04:29:11;6.13;;;3.80;;
45792;SDS011;31495;42.740;22.908;2023-05-10T04:30:10;6.18;;;3.72;;
45792;SDS011;31495;42.740;22.908;2023-05-10T04:31:10;6.05;;;3.70;;
45792;SDS011;31495;42.740;22.908;2023-05-10T04:32:09;5.80;;;4.03;;
45792;SDS011;31495;42.740;22.908;2023-05-10T04:33:09;6.85;;;3.60;;
45792;SDS011;31495;42.740;22.908;2023-05-10T04:34:08;5.35;;;3.22;;
45792;SDS011;31495;42.740;22.908;2023-05-10T04:35:08;5.50;;;3.72;;
45792;SDS011;31495;42.740;22.908;2023-05-10T04:36:09;5.60;;;3.83;;
45792;SDS011;31495;42.740;22.908;2023-05-10T04:37:08;4.47;;;3.50;;
45792;SDS011;31495;42.740;22.908;2023-05-10T04:38:07;5.18;;;3.03;;
45792;SDS011;31495;42.740;22.908;2023-05-10T04:39:07;7.75;;;3.28;;
45792;SDS011;31495;42.740;22.908;2023-05-10T04:40:08;9.73;;;3.75;;
45792;SDS011;31495;42.740;22.908;2023-05-10T04:41:09;8.82;;;3.88;;
45792;SDS011;31495;42.740;22.908;2023-05-10T04:42:09;6.88;;;4.32;;
45792;SDS011;31495;42.740;22.908;2023-05-10T04:43:09;8.95;;;5.22;;
45792;SDS011;31495;42.740;22.908;2023-05-10T04:44:09;8.68;;;4.78;;
45792;SDS011;31495;42.740;22.908;2023-05-10T04:45:08;6.30;;;4.60;;
45792;SDS011;31495;42.740;22.908;2023-05-10T04:46:08;6.95;;;3.92;;
45792;SDS011;31495;42.740;22.908;2023-05-10T04:47:08;7.28;;;4.00;;
45792;SDS011;31495;42.740;22.908;2023-05-10T04:48:07;7.43;;;4.65;;
45792;SDS011;31495;42.740;22.908;2023-05-10T04:49:07;6.35;;;4.28;;
45792;SDS011;31495;42.740;22.908;2023-05-10T04:50:06;7.63;;;4.18;;
45792;SDS011;31495;42.740;22.908;2023-05-10T04:51:06;7.13;;;4.70;;
45792;SDS011;31495;42.740;22.908;2023-05-10T04:52:06;7.50;;;4.30;;
45792;SDS011;31495;42.740;22.908;2023-05-10T04:53:05;7.50;;;4.07;;
45792;SDS011;31495;42.740;22.908;2023-05-10T04:54:04;5.95;;;4.10;;
45792;SDS011;31495;42.740;22.908;2023-05-10T04:55:04;8.18;;;4.18;;
45792;SDS011;31495;42.740;22.908;2023-05-10T04:56:05;8.45;;;4.95;;
45792;SDS011;31495;42.740;22.908;2023-05-10T04:57:06;6.22;;;4.40;;
45792;SDS011;31495;42.740;22.908;2023-05-10T04:58:05;7.30;;;4.78;;
45792;SDS011;31495;42.740;22.908;2023-05-10T04:59:05;9.85;;;5.03;;
45792;SDS011;31495;42.740;22.908;2023-05-10T05:00:04;7.32;;;4.78;;
45792;SDS011;31495;42.740;22.908;2023-05-10T05:01:08;7.15;;;5.00;;
45792;SDS011;31495;42.740;22.908;2023-05-10T05:02:08;7.65;;;4.55;;
45792;SDS011;31495;42.740;22.908;2023-05-10T05:03:08;7.25;;;4.70;;
45792;SDS011;31495;42.740;22.908;2023-05-10T05:04:07;8.50;;;5.80;;
45792;SDS011;31495;42.740;22.908;2023-05-10T05:05:07;8.18;;;5.68;;
45792;SDS011;31495;42.740;22.908;2023-05-10T05:06:07;8.02;;;5.43;;
45792;SDS011;31495;42.740;22.908;2023-05-10T05:07:06;7.40;;;4.97;;
45792;SDS011;31495;42.740;22.908;2023-05-10T05:08:05;7.28;;;4.78;;
45792;SDS011;31495;42.740;22.908;2023-05-10T05:09:05;8.30;;;4.63;;
45792;SDS011;31495;42.740;22.908;2023-05-10T05:10:08;7.88;;;5.38;;
45792;SDS011;31495;42.740;22.908;2023-05-10T05:11:08;7.63;;;4.65;;
45792;SDS011;31495;42.740;22.908;2023-05-10T05:12:07;6.95;;;4.93;;
45792;SDS011;31495;42.740;22.908;2023-05-10T05:13:06;8.38;;;4.95;;
45792;SDS011;31495;42.740;22.908;2023-05-10T05:14:06;8.68;;;5.30;;
45792;SDS011;31495;42.740;22.908;2023-05-10T05:15:05;9.70;;;6.03;;
45792;SDS011;31495;42.740;22.908;2023-05-10T05:16:07;8.70;;;5.35;;
45792;SDS011;31495;42.740;22.908;2023-05-10T05:17:06;8.88;;;5.10;;
45792;SDS011;31495;42.740;22.908;2023-05-10T05:18:06;8.68;;;4.95;;
45792;SDS011;31495;42.740;22.908;2023-05-10T05:19:06;6.82;;;4.68;;
45792;SDS011;31495;42.740;22.908;2023-05-10T05:20:05;10.13;;;4.40;;
45792;SDS011;31495;42.740;22.908;2023-05-10T05:21:13;7.13;;;4.32;;
45792;SDS011;31495;42.740;22.908;2023-05-10T05:22:16;5.97;;;4.32;;
45792;SDS011;31495;42.740;22.908;2023-05-10T05:23:16;7.22;;;5.00;;
45792;SDS011;31495;42.740;22.908;2023-05-10T05:24:17;6.72;;;4.47;;
45792;SDS011;31495;42.740;22.908;2023-05-10T05:25:16;7.97;;;4.72;;
45792;SDS011;31495;42.740;22.908;2023-05-10T05:26:16;7.25;;;4.90;;
45792;SDS011;31495;42.740;22.908;2023-05-10T05:27:15;6.88;;;4.78;;
45792;SDS011;31495;42.740;22.908;2023-05-10T05:28:15;9.43;;;4.75;;
45792;SDS011;31495;42.740;22.908;2023-05-10T05:29:14;7.30;;;4.13;;
45792;SDS011;31495;42.740;22.908;2023-05-10T05:30:14;7.70;;;4.07;;
45792;SDS011;31495;42.740;22.908;2023-05-10T05:31:13;7.68;;;5.03;;
45792;SDS011;31495;42.740;22.908;2023-05-10T05:32:13;7.95;;;4.32;;
45792;SDS011;31495;42.740;22.908;2023-05-10T05:33:15;8.60;;;4.57;;
45792;SDS011;31495;42.740;22.908;2023-05-10T05:34:15;7.22;;;5.00;;
45792;SDS011;31495;42.740;22.908;2023-05-10T05:35:14;10.40;;;5.13;;
45792;SDS011;31495;42.740;22.908;2023-05-10T05:36:13;9.43;;;4.63;;
45792;SDS011;31495;42.740;22.908;2023-05-10T05:37:13;7.50;;;4.60;;
45792;SDS011;31495;42.740;22.908;2023-05-10T05:38:16;9.48;;;5.00;;
45792;SDS011;31495;42.740;22.908;2023-05-10T05:39:16;7.97;;;5.20;;
45792;SDS011;31495;42.740;22.908;2023-05-10T05:40:16;8.23;;;5.13;;
45792;SDS011;31495;42.740;22.908;2023-05-10T05:41:15;6.85;;;4.53;;
45792;SDS011;31495;42.740;22.908;2023-05-10T05:42:15;7.88;;;4.43;;
45792;SDS011;31495;42.740;22.908;2023-05-10T05:43:16;6.70;;;4.90;;
45792;SDS011;31495;42.740;22.908;2023-05-10T05:44:15;10.50;;;4.28;;
45792;SDS011;31495;42.740;22.908;2023-05-10T05:45:15;6.32;;;4.30;;
45792;SDS011;31495;42.740;22.908;2023-05-10T05:46:14;6.32;;;4.35;;
45792;SDS011;31495;42.740;22.908;2023-05-10T05:47:14;8.60;;;4.82;;
45792;SDS011;31495;42.740;22.908;2023-05-10T05:48:13;7.55;;;5.15;;
45792;SDS011;31495;42.740;22.908;2023-05-10T05:49:13;7.18;;;4.80;;
45792;SDS011;31495;42.740;22.908;2023-05-10T05:50:12;9.35;;;5.80;;
45792;SDS011;31495;42.740;22.908;2023-05-10T05:51:11;10.05;;;5.00;;
45792;SDS011;31495;42.740;22.908;2023-05-10T05:52:11;7.75;;;4.80;;
45792;SDS011;31495;42.740;22.908;2023-05-10T05:53:10;7.15;;;4.82;;
45792;SDS011;31495;42.740;22.908;2023-05-10T05:54:10;7.53;;;5.93;;
45792;SDS011;31495;42.740;22.908;2023-05-10T05:55:09;7.55;;;6.03;;
45792;SDS011;31495;42.740;22.908;2023-05-10T05:56:09;8.23;;;5.55;;
45792;SDS011;31495;42.740;22.908;2023-05-10T05:57:08;6.38;;;3.97;;
45792;SDS011;31495;42.740;22.908;2023-05-10T05:58:08;7.13;;;4.95;;
45792;SDS011;31495;42.740;22.908;2023-05-10T05:59:07;8.38;;;4.97;;
45792;SDS011;31495;42.740;22.908;2023-05-10T06:00:07;7.07;;;4.88;;
45792;SDS011;31495;42.740;22.908;2023-05-10T06:01:07;8.00;;;5.63;;
45792;SDS011;31495;42.740;22.908;2023-05-10T06:02:08;9.73;;;6.05;;
45792;SDS011;31495;42.740;22.908;2023-05-10T06:03:08;9.90;;;5.80;;
45792;SDS011;31495;42.740;22.908;2023-05-10T06:04:07;15.27;;;6.53;;
45792;SDS011;31495;42.740;22.908;2023-05-10T06:05:06;9.88;;;5.97;;
45792;SDS011;31495;42.740;22.908;2023-05-10T06:06:07;8.48;;;6.03;;
45792;SDS011;31495;42.740;22.908;2023-05-10T06:07:06;13.98;;;6.80;;
45792;SDS011;31495;42.740;22.908;2023-05-10T06:08:05;9.55;;;5.70;;
45792;SDS011;31495;42.740;22.908;2023-05-10T06:09:05;8.55;;;5.07;;
45792;SDS011;31495;42.740;22.908;2023-05-10T06:10:04;10.80;;;6.28;;
45792;SDS011;31495;42.740;22.908;2023-05-10T06:11:05;9.15;;;5.35;;
45792;SDS011;31495;42.740;22.908;2023-05-10T06:12:04;8.27;;;5.20;;
45792;SDS011;31495;42.740;22.908;2023-05-10T06:13:04;8.48;;;5.03;;
45792;SDS011;31495;42.740;22.908;2023-05-10T06:14:04;7.35;;;5.30;;
45792;SDS011;31495;42.740;22.908;2023-05-10T06:15:06;8.65;;;5.07;;
45792;SDS011;31495;42.740;22.908;2023-05-10T06:16:06;8.63;;;4.72;;
45792;SDS011;31495;42.740;22.908;2023-05-10T06:17:05;7.25;;;4.90;;
45792;SDS011;31495;42.740;22.908;2023-05-10T06:18:06;7.57;;;5.03;;
45792;SDS011;31495;42.740;22.908;2023-05-10T06:19:05;6.38;;;4.85;;
45792;SDS011;31495;42.740;22.908;2023-05-10T06:20:05;7.20;;;4.70;;
45792;SDS011;31495;42.740;22.908;2023-05-10T06:21:05;13.30;;;4.95;;